createdAt,value
2023-02-13T00:02:02.134Z,98587.94
2023-02-13T00:04:58.965Z,98590.34
2023-02-13T00:07:56.415Z,98586.09
2023-02-13T00:10:54.091Z,98579.19
2023-02-13T00:13:50.929Z,98576.34
2023-02-13T00:16:47.753Z,98586.09
2023-02-13T00:19:44.610Z,98578.16
2023-02-13T00:22:41.470Z,98574.50
2023-02-13T00:25:39.274Z,98576.31
2023-02-13T00:28:36.567Z,98573.47
2023-02-13T00:31:33.536Z,98573.69
2023-02-13T00:34:30.409Z,98573.88
2023-02-13T00:37:27.410Z,98567.56
2023-02-13T00:40:24.754Z,98574.28
2023-02-13T00:43:21.550Z,98570.41
2023-02-13T00:46:18.731Z,98574.28
2023-02-13T00:49:15.585Z,98581.19
2023-02-13T00:52:12.851Z,98568.56
2023-02-13T00:55:09.717Z,98568.16
2023-02-13T00:58:06.607Z,98570.81
2023-02-13T01:01:03.736Z,98572.25
2023-02-13T01:04:00.734Z,98581.63
2023-02-13T01:06:58.011Z,98575.72
2023-02-13T01:09:54.821Z,98580.41
2023-02-13T01:12:52.306Z,98583.22
2023-02-13T01:15:50.260Z,98576.94
2023-02-13T01:18:47.096Z,98569.44
2023-02-13T01:21:44.307Z,98572.47
2023-02-13T01:24:41.207Z,98573.28
2023-02-13T01:27:38.346Z,98567.38
2023-02-13T01:30:35.480Z,98576.91
2023-02-13T01:33:32.316Z,98566.75
2023-02-13T01:36:29.252Z,98570.44
2023-02-13T01:39:26.415Z,98566.16
2023-02-13T01:42:31.062Z,98568.81
2023-02-13T01:45:30.908Z,98568.00
2023-02-13T01:48:28.755Z,98565.13
2023-02-13T01:51:33.320Z,98571.25
2023-02-13T01:54:34.464Z,98572.03
2023-02-13T01:57:33.219Z,98561.03
2023-02-13T02:00:30.308Z,98565.13
2023-02-13T02:03:55.105Z,98552.72
2023-02-13T02:07:03.169Z,98556.38
2023-02-13T02:10:11.911Z,98557.00
2023-02-13T02:13:19.477Z,98553.75
2023-02-13T02:16:16.498Z,98551.72
2023-02-13T02:19:41.785Z,98545.41
2023-02-13T02:23:16.959Z,98548.47
2023-02-13T02:27:08.669Z,98554.13
2023-02-13T02:30:42.268Z,98557.41
2023-02-13T02:34:01.166Z,98551.91
2023-02-13T02:37:39.244Z,98554.16
2023-02-13T02:41:04.074Z,98551.09
2023-02-13T02:44:41.689Z,98546.44
2023-02-13T02:48:21.577Z,98551.72
2023-02-13T02:51:45.444Z,98552.75
2023-02-13T02:55:06.824Z,98549.09
2023-02-13T02:58:42.876Z,98549.91
2023-02-13T03:02:00.004Z,98542.56
2023-02-13T03:05:19.475Z,98547.44
2023-02-13T03:08:37.363Z,98545.81
2023-02-13T03:11:52.574Z,98548.66
2023-02-13T03:14:49.393Z,98548.66
2023-02-13T03:18:04.700Z,98540.94
2023-02-13T03:21:34.682Z,98547.63
2023-02-13T03:24:58.556Z,98546.63
2023-02-13T03:28:48.628Z,98548.03
2023-02-13T03:32:16.428Z,98553.13
2023-02-13T03:35:58.018Z,98546.84
2023-02-13T03:39:13.219Z,98548.66
2023-02-13T03:42:47.079Z,98552.13
2023-02-13T03:45:54.577Z,98551.28
2023-02-13T03:49:10.583Z,98552.31
2023-02-13T03:52:41.616Z,98557.81
2023-02-13T03:56:02.292Z,98553.56
2023-02-13T03:59:15.104Z,98547.03
2023-02-13T04:02:20.131Z,98561.47
2023-02-13T04:05:24.612Z,98557.41
2023-02-13T04:08:21.527Z,98553.75
2023-02-13T04:11:54.185Z,98554.34
2023-02-13T04:15:02.901Z,98557.78
2023-02-13T04:18:15.016Z,98554.53
2023-02-13T04:21:11.972Z,98544.38
2023-02-13T04:24:10.091Z,98550.09
2023-02-13T04:27:07.014Z,98540.13
2023-02-13T04:30:04.389Z,98543.56
2023-02-13T04:33:01.366Z,98546.19
2023-02-13T04:35:58.284Z,98536.66
2023-02-13T04:38:55.170Z,98542.97
2023-02-13T04:41:52.014Z,98542.34
2023-02-13T04:44:48.892Z,98548.66
2023-02-13T04:47:54.431Z,98548.66
2023-02-13T04:50:51.281Z,98553.53
2023-02-13T04:53:48.137Z,98545.38
2023-02-13T04:56:45.384Z,98540.53
2023-02-13T04:59:42.204Z,98536.66
2023-02-13T05:02:39.675Z,98539.13
2023-02-13T05:05:37.014Z,98536.06
2023-02-13T05:08:34.368Z,98542.78
2023-02-13T05:11:31.206Z,98539.31
2023-02-13T05:14:28.299Z,98542.78
2023-02-13T05:17:27.332Z,98545.41
2023-02-13T05:20:25.335Z,98542.34
2023-02-13T05:23:25.026Z,98542.97
2023-02-13T05:26:21.884Z,98546.63
2023-02-13T05:29:18.948Z,98551.09
2023-02-13T05:32:15.868Z,98544.16
2023-02-13T05:35:12.793Z,98548.22
2023-02-13T05:38:09.736Z,98550.88
2023-02-13T05:41:06.662Z,98555.97
2023-02-13T05:44:04.379Z,98555.59
2023-02-13T05:47:01.182Z,98549.47
2023-02-13T05:49:57.990Z,98549.47
2023-02-13T05:52:54.809Z,98553.53
2023-02-13T05:55:52.269Z,98560.00
2023-02-13T05:58:52.918Z,98554.94
2023-02-13T06:01:49.731Z,98566.72
2023-02-13T06:04:46.550Z,98563.28
2023-02-13T06:07:43.430Z,98571.38
2023-02-13T06:10:40.301Z,98582.19
2023-02-13T06:13:40.608Z,98571.41
2023-02-13T06:16:37.564Z,98568.97
2023-02-13T06:19:34.975Z,98563.88
2023-02-13T06:22:31.807Z,98566.72
2023-02-13T06:25:29.808Z,98574.88
2023-02-13T06:28:26.931Z,98574.47
2023-02-13T06:31:23.949Z,98564.28
2023-02-13T06:34:20.825Z,98568.34
2023-02-13T06:37:17.821Z,98578.47
2023-02-13T06:40:17.399Z,98574.84
2023-02-13T06:43:14.924Z,98575.03
2023-02-13T06:46:12.010Z,98581.91
2023-02-13T06:49:10.093Z,98584.50
2023-02-13T06:52:07.157Z,98592.84
2023-02-13T06:55:05.215Z,98593.69
2023-02-13T06:58:02.236Z,98587.41
2023-02-13T07:00:59.319Z,98591.50
2023-02-13T07:03:56.425Z,98596.97
2023-02-13T07:06:56.890Z,98591.69
2023-02-13T07:09:53.813Z,98591.31
2023-02-13T07:13:03.655Z,98599.03
2023-02-13T07:16:02.324Z,98605.38
2023-02-13T07:18:59.374Z,98603.13
2023-02-13T07:21:56.230Z,98621.44
2023-02-13T07:24:53.200Z,98611.91
2023-02-13T07:27:49.996Z,98603.38
2023-02-13T07:30:46.879Z,98609.69
2023-02-13T07:33:43.870Z,98604.41
2023-02-13T07:36:40.698Z,98606.06
2023-02-13T07:39:38.944Z,98603.44
2023-02-13T07:42:35.911Z,98606.91
2023-02-13T07:45:32.863Z,98607.28
2023-02-13T07:48:31.475Z,98610.75
2023-02-13T07:51:29.144Z,98610.75
2023-02-13T07:54:26.068Z,98607.88
2023-02-13T07:57:22.906Z,98603.63
2023-02-13T08:00:21.248Z,98590.34
2023-02-13T08:03:18.200Z,98601.09
2023-02-13T08:06:15.098Z,98598.06
2023-02-13T08:09:41.002Z,98599.91
2023-02-13T08:12:38.118Z,98591.75
2023-02-13T08:15:35.026Z,98592.94
2023-02-13T08:18:31.868Z,98597.63
2023-02-13T08:21:28.807Z,98599.84
2023-02-13T08:24:25.692Z,98591.06
2023-02-13T08:27:23.151Z,98594.78
2023-02-13T08:30:20.235Z,98587.78
2023-02-13T08:33:17.051Z,98589.16
2023-02-13T08:36:13.871Z,98588.81
2023-02-13T08:39:10.977Z,98596.16
2023-02-13T08:42:07.857Z,98599.59
2023-02-13T08:45:06.016Z,98593.53
2023-02-13T08:48:04.182Z,98596.31
2023-02-13T08:51:05.232Z,98602.56
2023-02-13T08:54:02.109Z,98592.75
2023-02-13T08:56:59.057Z,98596.88
2023-02-13T08:59:55.905Z,98596.75
2023-02-13T09:02:52.801Z,98600.38
2023-02-13T09:05:50.006Z,98601.81
2023-02-13T09:08:46.866Z,98605.63
2023-02-13T09:11:43.678Z,98610.81
2023-02-13T09:14:41.013Z,98608.19
2023-02-13T09:17:37.829Z,98613.16
2023-02-13T09:20:36.082Z,98617.41
2023-02-13T09:23:36.181Z,98618.19
2023-02-13T09:26:33.503Z,98622.91
2023-02-13T09:29:31.752Z,98610.63
2023-02-13T09:32:29.010Z,98617.03
2023-02-13T09:35:25.877Z,98613.16
2023-02-13T09:38:22.735Z,98605.38
2023-02-13T09:41:29.503Z,98612.13
2023-02-13T09:44:43.489Z,98618.72
2023-02-13T09:47:43.062Z,98613.75
2023-02-13T09:50:39.909Z,98612.00
2023-02-13T09:53:38.337Z,98621.94
2023-02-13T09:56:55.123Z,98620.66
2023-02-13T10:00:13.352Z,98619.88
2023-02-13T10:03:29.302Z,98618.91
2023-02-13T10:06:37.404Z,98610.09
2023-02-13T10:10:04.856Z,98594.59
2023-02-13T10:13:49.321Z,98588.81
2023-02-13T10:16:55.711Z,98589.75
2023-02-13T10:20:02.018Z,98589.00
2023-02-13T10:23:32.935Z,98571.94
2023-02-13T10:26:42.746Z,98562.69
2023-02-13T10:30:09.251Z,98570.03
2023-02-13T10:33:34.932Z,98569.47
2023-02-13T10:36:37.592Z,98562.38
2023-02-13T10:39:34.458Z,98559.66
2023-02-13T10:42:44.793Z,98557.03
2023-02-13T10:45:51.414Z,98555.13
2023-02-13T10:49:28.275Z,98559.53
2023-02-13T10:53:27.600Z,98544.19
2023-02-13T10:56:38.218Z,98552.06
2023-02-13T10:59:53.645Z,98536.78
2023-02-13T11:02:50.716Z,98534.13
2023-02-13T11:05:47.607Z,98533.28
2023-02-13T11:08:47.837Z,98532.28
2023-02-13T11:11:45.437Z,98533.69
2023-02-13T11:15:05.479Z,98518.63
2023-02-13T11:18:19.609Z,98526.19
2023-02-13T11:21:34.351Z,98524.44
2023-02-13T11:24:32.009Z,98523.44
2023-02-13T11:27:35.887Z,98534.19
2023-02-13T11:30:38.319Z,98551.72
2023-02-13T11:33:35.290Z,98533.06
2023-02-13T11:36:34.347Z,98521.50
2023-02-13T11:39:31.628Z,98520.91
2023-02-13T11:42:35.894Z,98517.16
2023-02-13T11:45:33.172Z,98532.16
2023-02-13T11:48:30.004Z,98521.16
2023-02-13T11:51:45.777Z,98528.97
2023-02-13T11:54:45.410Z,98505.94
2023-02-13T11:57:42.281Z,98514.56
2023-02-13T12:00:41.720Z,98512.56
2023-02-13T12:03:41.256Z,98504.47
2023-02-13T12:06:40.905Z,98497.72
2023-02-13T12:09:41.056Z,98496.31
2023-02-13T12:13:29.797Z,98497.78
2023-02-13T12:16:54.404Z,98505.59
2023-02-13T12:19:53.257Z,98504.22
2023-02-13T12:23:06.005Z,98497.88
2023-02-13T12:26:40.645Z,98483.31
2023-02-13T12:30:06.501Z,98499.06
2023-02-13T12:33:50.038Z,98494.31
2023-02-13T12:37:01.707Z,98501.44
2023-02-13T12:40:29.622Z,98505.66
2023-02-13T12:43:54.231Z,98501.06
2023-02-13T12:47:05.796Z,98488.38
2023-02-13T12:50:44.298Z,98485.00
2023-02-13T12:54:07.643Z,98483.63
2023-02-13T12:57:11.211Z,98480.47
2023-02-13T13:00:41.030Z,98480.44
2023-02-13T13:04:23.134Z,98482.69
2023-02-13T13:07:52.564Z,98485.00
2023-02-13T13:11:00.855Z,98476.75
2023-02-13T13:14:52.662Z,98455.13
2023-02-13T13:18:18.684Z,98454.78
2023-02-13T13:21:41.932Z,98452.69
2023-02-13T13:25:22.957Z,98451.53
2023-02-13T13:28:28.712Z,98448.09
2023-02-13T13:31:28.165Z,98447.75
2023-02-13T13:34:27.389Z,98449.56
2023-02-13T13:37:40.724Z,98443.22
2023-02-13T13:40:53.792Z,98450.97
2023-02-13T13:44:15.585Z,98447.41
2023-02-13T13:48:28.146Z,98448.22
2023-02-13T13:51:25.376Z,98447.69
2023-02-13T13:54:32.560Z,98443.97
2023-02-13T13:57:41.190Z,98455.84
2023-02-13T14:00:38.133Z,98457.38
2023-02-13T14:03:37.237Z,98451.00
2023-02-13T14:06:46.033Z,98452.94
2023-02-13T14:09:43.896Z,98448.31
2023-02-13T14:13:07.901Z,98433.03
2023-02-13T14:16:12.194Z,98442.28
2023-02-13T14:19:38.283Z,98443.34
2023-02-13T14:22:39.420Z,98443.75
2023-02-13T14:25:37.241Z,98440.28
2023-02-13T14:28:34.088Z,98448.81
2023-02-13T14:32:03.571Z,98436.44
2023-02-13T14:35:23.116Z,98441.56
2023-02-13T14:38:25.644Z,98439.59
2023-02-13T14:41:46.013Z,98437.91
2023-02-13T14:44:54.370Z,98433.44
2023-02-13T14:47:56.767Z,98426.25
2023-02-13T14:50:57.648Z,98433.84
2023-02-13T14:54:15.770Z,98433.66
2023-02-13T14:57:29.413Z,98433.81
2023-02-13T15:00:55.792Z,98427.00
2023-02-13T15:04:16.941Z,98427.31
2023-02-13T15:07:23.597Z,98425.69
2023-02-13T15:10:48.185Z,98424.94
2023-02-13T15:13:45.131Z,98423.31
2023-02-13T15:16:42.036Z,98418.66
2023-02-13T15:19:45.600Z,98423.59
2023-02-13T15:22:47.102Z,98418.72
2023-02-13T15:25:44.635Z,98429.34
2023-02-13T15:28:41.471Z,98428.56
2023-02-13T15:31:38.570Z,98425.72
2023-02-13T15:34:36.236Z,98434.69
2023-02-13T15:37:33.110Z,98436.53
2023-02-13T15:40:39.036Z,98439.13
2023-02-13T15:43:48.045Z,98428.44
2023-02-13T15:46:49.077Z,98438.78
2023-02-13T15:49:47.978Z,98438.22
2023-02-13T15:52:45.677Z,98433.75
2023-02-13T15:55:42.565Z,98437.28
2023-02-13T15:58:39.434Z,98440.56
2023-02-13T16:01:36.512Z,98452.19
2023-02-13T16:04:34.045Z,98438.47
2023-02-13T16:07:30.904Z,98444.91
2023-02-13T16:10:34.866Z,98447.50
2023-02-13T16:13:31.795Z,98433.53
2023-02-13T16:16:31.446Z,98439.59
2023-02-13T16:19:51.708Z,98438.13
2023-02-13T16:22:56.686Z,98437.44
2023-02-13T16:26:00.818Z,98449.50
2023-02-13T16:28:57.805Z,98456.00
2023-02-13T16:32:10.264Z,98450.41
2023-02-13T16:35:42.107Z,98452.06
2023-02-13T16:38:48.116Z,98456.75
2023-02-13T16:41:44.924Z,98461.09
2023-02-13T16:44:41.744Z,98468.72
2023-02-13T16:47:38.715Z,98468.22
2023-02-13T16:50:35.607Z,98471.13
2023-02-13T16:53:34.295Z,98468.44
2023-02-13T16:56:41.973Z,98470.94
2023-02-13T17:00:01.230Z,98469.53
2023-02-13T17:02:58.045Z,98478.09
2023-02-13T17:05:57.465Z,98476.44
2023-02-13T17:08:54.335Z,98476.84
2023-02-13T17:11:53.036Z,98483.59
2023-02-13T17:14:49.949Z,98485.78
2023-02-13T17:17:48.242Z,98487.03
2023-02-13T17:20:45.726Z,98486.38
2023-02-13T17:23:42.677Z,98503.25
2023-02-13T17:26:39.470Z,98495.91
2023-02-13T17:29:36.275Z,98505.03
2023-02-13T17:32:33.103Z,98507.09
2023-02-13T17:35:30.747Z,98502.81
2023-02-13T17:38:27.542Z,98505.06
2023-02-13T17:41:24.400Z,98505.84
2023-02-13T17:44:21.213Z,98497.06
2023-02-13T17:47:18.564Z,98499.47
2023-02-13T17:50:17.359Z,98498.50
2023-02-13T17:53:26.400Z,98496.84
2023-02-13T17:56:23.326Z,98493.34
2023-02-13T17:59:20.199Z,98490.28
2023-02-13T18:02:22.630Z,98497.59
2023-02-13T18:05:19.753Z,98499.53
2023-02-13T18:08:17.082Z,98505.81
2023-02-13T18:11:13.913Z,98506.38
2023-02-13T18:14:10.726Z,98515.31
2023-02-13T18:17:08.244Z,98510.44
2023-02-13T18:20:07.389Z,98516.72
2023-02-13T18:23:04.303Z,98518.09
2023-02-13T18:26:09.946Z,98510.78
2023-02-13T18:29:07.120Z,98510.75
2023-02-13T18:32:08.143Z,98513.78
2023-02-13T18:35:07.400Z,98518.34
2023-02-13T18:38:04.213Z,98510.00
2023-02-13T18:41:01.958Z,98507.53
2023-02-13T18:43:58.782Z,98506.38
2023-02-13T18:46:56.251Z,98508.53
2023-02-13T18:49:53.065Z,98499.63
2023-02-13T18:52:50.602Z,98506.38
2023-02-13T18:55:47.617Z,98501.31
2023-02-13T18:58:44.421Z,98506.25
2023-02-13T19:01:41.349Z,98498.47
2023-02-13T19:04:38.308Z,98506.44
2023-02-13T19:07:35.163Z,98495.97
2023-02-13T19:10:32.010Z,98491.16
2023-02-13T19:13:29.064Z,98494.00
2023-02-13T19:16:26.983Z,98508.16
2023-02-13T19:19:25.852Z,98501.63
2023-02-13T19:22:22.997Z,98502.03
2023-02-13T19:25:22.043Z,98500.53
2023-02-13T19:28:18.897Z,98508.94
2023-02-13T19:31:20.247Z,98500.41
2023-02-13T19:34:17.169Z,98494.09
2023-02-13T19:37:14.026Z,98501.84
2023-02-13T19:40:12.361Z,98498.56
2023-02-13T19:43:09.192Z,98499.84
2023-02-13T19:46:10.246Z,98497.75
2023-02-13T19:49:07.530Z,98508.94
2023-02-13T19:52:04.515Z,98495.94
2023-02-13T19:55:01.789Z,98500.28
2023-02-13T19:57:58.671Z,98512.44
2023-02-13T20:00:55.601Z,98509.31
2023-02-13T20:03:52.833Z,98513.69
2023-02-13T20:06:50.725Z,98510.31
2023-02-13T20:09:47.866Z,98513.88
2023-02-13T20:12:44.715Z,98508.03
2023-02-13T20:15:41.654Z,98505.66
2023-02-13T20:18:39.452Z,98498.28
2023-02-13T20:21:36.719Z,98498.31
2023-02-13T20:24:33.574Z,98484.22
2023-02-13T20:27:30.538Z,98489.19
2023-02-13T20:30:27.465Z,98494.38
2023-02-13T20:33:24.313Z,98496.53
2023-02-13T20:36:28.413Z,98504.94
2023-02-13T20:39:25.801Z,98497.25
2023-02-13T20:42:22.818Z,98496.25
2023-02-13T20:45:19.708Z,98496.88
2023-02-13T20:48:16.906Z,98490.69
2023-02-13T20:51:16.134Z,98489.19
2023-02-13T20:54:12.965Z,98501.56
2023-02-13T20:57:09.930Z,98496.41
2023-02-13T21:00:09.488Z,98499.69
2023-02-13T21:03:06.406Z,98493.78
2023-02-13T21:06:03.424Z,98489.50
2023-02-13T21:09:01.504Z,98484.91
2023-02-13T21:11:58.358Z,98489.28
2023-02-13T21:14:55.246Z,98486.22
2023-02-13T21:17:52.140Z,98484.59
2023-02-13T21:20:49.844Z,98496.88
2023-02-13T21:23:47.429Z,98483.19
2023-02-13T21:26:45.774Z,98485.19
2023-02-13T21:29:42.619Z,98486.13
2023-02-13T21:32:39.768Z,98491.28
2023-02-13T21:35:36.621Z,98497.59
2023-02-13T21:38:35.734Z,98494.34
2023-02-13T21:41:33.026Z,98493.53
2023-02-13T21:44:29.899Z,98486.06
2023-02-13T21:47:26.920Z,98485.44
2023-02-13T21:50:24.621Z,98481.72
2023-02-13T21:53:21.555Z,98493.13
2023-02-13T21:56:22.415Z,98489.69
2023-02-13T21:59:19.320Z,98484.00
2023-02-13T22:02:16.481Z,98487.56
2023-02-13T22:05:13.430Z,98481.16
2023-02-13T22:08:10.300Z,98484.72
2023-02-13T22:11:07.800Z,98482.91
2023-02-13T22:14:07.718Z,98482.91
2023-02-13T22:17:04.653Z,98479.22
2023-02-13T22:20:01.593Z,98484.53
2023-02-13T22:22:58.484Z,98478.94
2023-02-13T22:25:55.490Z,98483.31
2023-02-13T22:28:54.575Z,98483.50
2023-02-13T22:31:51.593Z,98484.59
2023-02-13T22:34:48.731Z,98477.88
2023-02-13T22:37:45.757Z,98481.97
2023-02-13T22:40:42.640Z,98483.41
2023-02-13T22:43:40.539Z,98483.59
2023-02-13T22:46:37.572Z,98489.34
2023-02-13T22:49:35.935Z,98482.78
2023-02-13T22:52:32.965Z,98485.50
2023-02-13T22:55:29.820Z,98484.88
2023-02-13T22:58:27.462Z,98485.41
2023-02-13T23:01:26.969Z,98489.03
2023-02-13T23:04:23.858Z,98479.63
2023-02-13T23:07:20.756Z,98479.72
2023-02-13T23:10:19.167Z,98482.59
2023-02-13T23:13:16.054Z,98481.16
2023-02-13T23:16:14.742Z,98471.38
2023-02-13T23:19:12.053Z,98473.06
2023-02-13T23:22:08.970Z,98477.28
2023-02-13T23:25:06.987Z,98470.91
2023-02-13T23:28:05.152Z,98467.84
2023-02-13T23:31:03.733Z,98472.13
2023-02-13T23:34:00.901Z,98471.47
2023-02-13T23:36:57.739Z,98474.94
2023-02-13T23:39:54.694Z,98473.66
2023-02-13T23:42:51.608Z,98465.94
2023-02-13T23:45:49.727Z,98471.22
2023-02-13T23:48:46.750Z,98468.38
2023-02-13T23:51:43.593Z,98478.00
2023-02-13T23:54:40.544Z,98465.59
2023-02-13T23:57:37.442Z,98466.75
